Kingville, South Carolina
Current Conditions -  °F | °C
As of 12:58 AM on Tuesday 27 Jan 2015 (Local Time) from KMMT Reporting Station
Clear Clear  
Wind Chill: 31°   Ceiling: Unl
Heat Index: 39°   Visibility: 10mi
Dew Point: 24°   Wind: 13mph
Humidity: 55%   Direction: 300°WNW
Pressure: 29.79"   Gusts: NA
Location:  33.8428°N, 80.7414°W
Report Text: KMMT 270558Z AUTO 30011KT 10SM CLR 04/M04 A2979 RMK AO2 SLP091 T00371045 10108 20037 50003
Loading
Personal Weather Stations






























Interactive Weather Map New forecast layout! Learn more

10-Day Weather Forecast

Advertisements
Track Severe Weather on mobile